createdAt,value
2023-02-04T00:00:18.320Z,2.10
2023-02-04T00:03:41.497Z,2.00
2023-02-04T00:06:44.652Z,1.90
2023-02-04T00:09:49.868Z,2.30
2023-02-04T00:12:53.082Z,1.90
2023-02-04T00:15:56.299Z,2.30
2023-02-04T00:18:59.618Z,2.20
2023-02-04T00:22:04.014Z,2.20
2023-02-04T00:25:07.829Z,1.80
2023-02-04T00:28:11.110Z,2.00
2023-02-04T00:31:14.402Z,1.80
2023-02-04T00:34:18.492Z,1.70
2023-02-04T00:37:22.402Z,1.50
2023-02-04T00:40:25.597Z,2.00
2023-02-04T00:43:28.819Z,1.90
2023-02-04T00:46:32.197Z,2.10
2023-02-04T00:49:35.462Z,1.60
2023-02-04T00:52:38.662Z,2.10
2023-02-04T00:55:42.170Z,1.90
2023-02-04T00:58:45.441Z,1.50
2023-02-04T01:01:48.674Z,1.20
2023-02-04T01:04:51.907Z,1.50
2023-02-04T01:07:55.149Z,1.20
2023-02-04T01:10:58.507Z,1.20
2023-02-04T01:14:02.691Z,1.40
2023-02-04T01:17:06.216Z,1.40
2023-02-04T01:20:10.776Z,1.30
2023-02-04T01:23:14.014Z,0.80
2023-02-04T01:26:19.086Z,0.80
2023-02-04T01:29:22.314Z,0.90
2023-02-04T01:32:27.223Z,1.30
2023-02-04T01:35:30.482Z,1.20
2023-02-04T01:38:34.066Z,1.10
2023-02-04T01:41:37.415Z,1.30
2023-02-04T01:44:40.973Z,1.40
2023-02-04T01:47:46.018Z,1.10
2023-02-04T01:50:51.016Z,1.70
2023-02-04T01:53:55.438Z,1.50
2023-02-04T01:56:58.707Z,1.30
2023-02-04T02:00:01.949Z,1.60
2023-02-04T02:03:15.283Z,1.30
2023-02-04T02:06:19.710Z,1.30
2023-02-04T02:09:23.850Z,1.40
2023-02-04T02:12:27.108Z,1.30
2023-02-04T02:15:30.387Z,1.80
2023-02-04T02:18:33.834Z,1.00
2023-02-04T02:21:43.828Z,1.30
2023-02-04T02:24:47.075Z,1.30
2023-02-04T02:27:50.501Z,1.40
2023-02-04T02:30:53.888Z,1.60
2023-02-04T02:33:57.367Z,1.50
2023-02-04T02:37:02.190Z,1.60
2023-02-04T02:40:07.067Z,1.70
2023-02-04T02:43:16.382Z,1.80
2023-02-04T02:46:19.741Z,2.20
2023-02-04T02:49:23.579Z,2.30
2023-02-04T02:52:26.918Z,2.30
2023-02-04T02:55:30.713Z,2.60
2023-02-04T02:58:36.479Z,1.80
2023-02-04T03:01:40.285Z,1.80
2023-02-04T03:04:48.518Z,1.20
2023-02-04T03:07:52.328Z,0.90
2023-02-04T03:10:55.876Z,1.10
2023-02-04T03:14:04.007Z,0.90
2023-02-04T03:17:10.219Z,0.80
2023-02-04T03:20:15.615Z,0.90
2023-02-04T03:23:20.311Z,0.80
2023-02-04T03:26:25.797Z,0.60
2023-02-04T03:29:29.920Z,0.90
2023-02-04T03:32:33.359Z,0.80
2023-02-04T03:35:36.576Z,1.70
2023-02-04T03:38:39.846Z,2.00
2023-02-04T03:41:43.376Z,3.00
2023-02-04T03:44:46.613Z,3.50
2023-02-04T03:47:49.760Z,4.20
2023-02-04T03:50:53.011Z,4.20
2023-02-04T03:53:56.254Z,4.60
2023-02-04T03:56:59.582Z,4.50
2023-02-04T04:00:02.858Z,4.70
2023-02-04T04:03:14.966Z,4.80
2023-02-04T04:06:18.459Z,5.20
2023-02-04T04:09:21.983Z,5.00
2023-02-04T04:12:25.478Z,5.30
2023-02-04T04:15:28.836Z,6.20
2023-02-04T04:18:33.061Z,5.60
2023-02-04T04:21:36.261Z,4.70
2023-02-04T04:24:39.476Z,5.10
2023-02-04T04:27:42.742Z,5.20
2023-02-04T04:30:46.035Z,5.20
2023-02-04T04:33:49.240Z,4.70
2023-02-04T04:36:52.445Z,4.30
2023-02-04T04:39:55.749Z,4.40
2023-02-04T04:42:58.975Z,3.70
2023-02-04T04:46:02.153Z,3.40
2023-02-04T04:49:05.318Z,3.20
2023-02-04T04:52:08.542Z,3.90
2023-02-04T04:55:11.769Z,2.90
2023-02-04T04:58:14.976Z,3.00
2023-02-04T05:01:19.139Z,2.70
2023-02-04T05:04:22.536Z,2.50
2023-02-04T05:07:25.953Z,2.80
2023-02-04T05:10:29.332Z,2.70
2023-02-04T05:13:32.783Z,2.60
2023-02-04T05:16:36.122Z,2.70
2023-02-04T05:19:39.510Z,2.30
2023-02-04T05:22:42.841Z,3.00
2023-02-04T05:25:46.152Z,2.80
2023-02-04T05:28:49.536Z,2.70
2023-02-04T05:31:52.937Z,3.00
2023-02-04T05:34:56.279Z,3.10
2023-02-04T05:37:59.703Z,3.00
2023-02-04T05:41:03.047Z,3.20
2023-02-04T05:44:06.429Z,3.20
2023-02-04T05:47:09.800Z,3.70
2023-02-04T05:50:13.455Z,3.50
2023-02-04T05:53:30.574Z,4.00
2023-02-04T05:56:34.004Z,3.70
2023-02-04T05:59:37.344Z,4.70
2023-02-04T06:02:40.649Z,4.10
2023-02-04T06:05:44.379Z,4.30
2023-02-04T06:08:47.782Z,4.40
2023-02-04T06:11:51.180Z,5.10
2023-02-04T06:14:54.571Z,5.40
2023-02-04T06:17:58.581Z,4.90
2023-02-04T06:21:04.764Z,4.60
2023-02-04T06:24:08.143Z,4.70
2023-02-04T06:27:11.637Z,4.60
2023-02-04T06:30:16.281Z,5.10
2023-02-04T06:33:19.685Z,4.10
2023-02-04T06:36:22.979Z,4.90
2023-02-04T06:39:26.437Z,4.00
2023-02-04T06:50:00.068Z,5.00
2023-02-04T06:53:03.479Z,5.50
2023-02-04T06:56:06.980Z,5.40
2023-02-04T06:59:11.202Z,5.00
2023-02-04T07:02:14.507Z,4.60
2023-02-04T07:05:17.993Z,5.50
2023-02-04T07:08:24.037Z,6.50
2023-02-04T07:11:27.230Z,7.10
2023-02-04T07:14:30.433Z,6.10
2023-02-04T07:17:33.685Z,5.50
2023-02-04T07:20:36.996Z,4.80
2023-02-04T07:23:40.281Z,5.10
2023-02-04T07:26:43.598Z,5.30
2023-02-04T07:29:46.990Z,6.80
2023-02-04T07:32:50.299Z,6.70
2023-02-04T07:35:53.525Z,7.00
2023-02-04T07:38:56.693Z,10.50
2023-02-04T07:41:59.918Z,13.20
2023-02-04T07:45:08.787Z,12.90
2023-02-04T07:48:12.074Z,12.50
2023-02-04T07:51:15.397Z,8.70
2023-02-04T07:54:18.711Z,8.50
2023-02-04T07:57:21.917Z,7.90
2023-02-04T08:00:25.361Z,6.60
2023-02-04T08:03:28.659Z,8.00
2023-02-04T08:06:31.902Z,6.30
2023-02-04T08:09:35.123Z,7.30
2023-02-04T08:12:38.468Z,6.40
2023-02-04T08:15:41.855Z,7.80
2023-02-04T08:18:47.830Z,8.50
2023-02-04T08:21:51.253Z,8.70
2023-02-04T08:24:54.554Z,8.70
2023-02-04T08:27:57.832Z,8.00
2023-02-04T08:31:01.179Z,8.50
2023-02-04T08:34:05.895Z,8.10
2023-02-04T08:37:09.066Z,8.20
2023-02-04T08:40:12.523Z,9.30
2023-02-04T08:43:15.763Z,8.30
2023-02-04T08:46:19.140Z,9.60
2023-02-04T08:49:22.444Z,9.90
2023-02-04T08:52:25.699Z,11.00
2023-02-04T08:55:28.923Z,8.60
2023-02-04T08:58:32.340Z,8.50
2023-02-04T09:01:35.582Z,7.00
2023-02-04T09:04:39.009Z,7.00
2023-02-04T09:07:42.267Z,8.90
2023-02-04T09:10:45.522Z,10.60
2023-02-04T09:13:48.769Z,10.10
2023-02-04T09:16:52.000Z,7.50
2023-02-04T09:19:55.169Z,6.80
2023-02-04T09:22:58.396Z,7.40
2023-02-04T09:26:01.641Z,8.00
2023-02-04T09:29:05.047Z,6.80
2023-02-04T09:32:08.370Z,7.70
2023-02-04T09:35:11.635Z,7.90
2023-02-04T09:38:15.046Z,8.10
2023-02-04T09:41:18.506Z,7.10
2023-02-04T09:44:32.163Z,5.60
2023-02-04T09:47:36.578Z,6.00
2023-02-04T09:50:40.002Z,7.20
2023-02-04T09:53:43.554Z,5.10
2023-02-04T09:56:48.401Z,5.50
2023-02-04T09:59:53.842Z,6.00
2023-02-04T10:03:02.822Z,5.10
2023-02-04T10:06:08.770Z,4.10
2023-02-04T10:09:12.969Z,4.00
2023-02-04T10:12:16.537Z,6.20
2023-02-04T10:15:20.893Z,4.90
2023-02-04T10:18:28.921Z,5.70
2023-02-04T10:21:36.888Z,6.10
2023-02-04T10:24:40.119Z,6.00
2023-02-04T10:27:52.208Z,6.70
2023-02-04T10:30:55.542Z,5.70
2023-02-04T10:34:19.959Z,5.10
2023-02-04T10:37:23.249Z,5.10
2023-02-04T10:40:36.541Z,6.70
2023-02-04T10:43:39.845Z,6.50
2023-02-04T10:46:43.213Z,6.10
2023-02-04T10:50:06.262Z,6.10
2023-02-04T10:53:30.093Z,5.20
2023-02-04T10:56:33.418Z,5.60
2023-02-04T10:59:37.117Z,5.80
2023-02-04T11:02:44.898Z,6.10
2023-02-04T11:05:48.236Z,5.80
2023-02-04T11:08:53.689Z,5.00
2023-02-04T11:11:58.329Z,5.00
2023-02-04T11:15:01.575Z,4.70
2023-02-04T11:18:11.371Z,6.30
2023-02-04T11:21:36.363Z,6.90
2023-02-04T11:24:39.681Z,4.90
2023-02-04T11:27:43.955Z,4.40
2023-02-04T11:30:58.769Z,3.30
2023-02-04T11:34:18.642Z,8.10
2023-02-04T11:37:34.163Z,9.50
2023-02-04T11:40:38.665Z,8.60
2023-02-04T11:43:41.932Z,8.40
2023-02-04T11:46:51.564Z,4.50
2023-02-04T11:50:04.504Z,6.80
2023-02-04T11:53:11.629Z,6.00
2023-02-04T11:56:19.239Z,5.00
2023-02-04T11:59:22.546Z,5.30
2023-02-04T12:02:26.531Z,6.10
2023-02-04T12:05:41.909Z,5.00
2023-02-04T12:08:45.166Z,5.00
2023-02-04T12:12:02.826Z,5.20
2023-02-04T12:15:16.394Z,6.10
2023-02-04T12:18:19.579Z,7.30
2023-02-04T12:21:23.684Z,7.30
2023-02-04T12:24:27.342Z,9.30
2023-02-04T12:27:30.550Z,7.80
2023-02-04T12:30:33.741Z,8.50
2023-02-04T12:33:36.975Z,5.90
2023-02-04T12:36:40.402Z,6.50
2023-02-04T12:39:43.596Z,6.20
2023-02-04T12:42:46.902Z,6.00
2023-02-04T12:45:50.198Z,7.30
2023-02-04T12:48:53.541Z,6.50
2023-02-04T12:51:59.263Z,4.90
2023-02-04T12:55:04.995Z,7.20
2023-02-04T12:58:08.537Z,5.90
2023-02-04T13:01:11.854Z,3.70
2023-02-04T13:04:15.084Z,3.10
2023-02-04T13:07:18.448Z,2.80
2023-02-04T13:10:23.989Z,7.30
2023-02-04T13:13:27.178Z,7.00
2023-02-04T13:16:30.365Z,6.00
2023-02-04T13:19:34.166Z,6.00
2023-02-04T13:22:37.396Z,3.90
2023-02-04T13:25:40.945Z,7.50
2023-02-04T13:28:44.095Z,7.70
2023-02-04T13:31:47.283Z,7.80
2023-02-04T13:34:50.586Z,5.30
2023-02-04T13:37:55.694Z,4.60
2023-02-04T13:40:59.687Z,4.00
2023-02-04T13:44:04.322Z,5.10
2023-02-04T13:47:07.628Z,6.50
2023-02-04T13:50:10.894Z,7.90
2023-02-04T13:53:14.085Z,9.50
2023-02-04T13:56:17.361Z,11.40
2023-02-04T13:59:21.103Z,9.40
2023-02-04T14:02:25.318Z,7.20
2023-02-04T14:05:28.660Z,6.40
2023-02-04T14:08:31.992Z,12.70
2023-02-04T14:11:35.553Z,11.80
2023-02-04T14:14:38.805Z,12.00
2023-02-04T14:17:42.057Z,10.20
2023-02-04T14:20:45.399Z,11.60
2023-02-04T14:23:48.766Z,10.30
2023-02-04T14:26:52.181Z,10.70
2023-02-04T14:29:55.440Z,10.30
2023-02-04T14:32:58.999Z,9.50
2023-02-04T14:36:02.160Z,11.40
2023-02-04T14:39:05.596Z,18.10
2023-02-04T14:42:08.867Z,8.40
2023-02-04T14:45:13.780Z,5.20
2023-02-04T14:48:17.180Z,5.80
2023-02-04T14:51:20.425Z,6.70
2023-02-04T14:54:24.021Z,10.10
2023-02-04T14:57:27.222Z,5.80
2023-02-04T15:00:30.657Z,6.90
2023-02-04T15:03:33.989Z,8.00
2023-02-04T15:06:37.875Z,11.30
2023-02-04T15:09:42.556Z,15.50
2023-02-04T15:12:45.839Z,13.00
2023-02-04T15:15:49.096Z,7.20
2023-02-04T15:18:52.596Z,6.70
2023-02-04T15:21:55.815Z,5.10
2023-02-04T15:24:59.140Z,5.50
2023-02-04T15:28:02.422Z,6.00
2023-02-04T15:31:05.942Z,6.20
2023-02-04T15:34:09.159Z,4.20
2023-02-04T15:37:12.488Z,4.10
2023-02-04T15:40:15.747Z,5.40
2023-02-04T15:43:18.957Z,5.10
2023-02-04T15:46:22.275Z,5.70
2023-02-04T15:49:25.564Z,5.70
2023-02-04T15:52:29.437Z,4.90
2023-02-04T15:55:32.864Z,5.40
2023-02-04T15:58:36.898Z,5.20
2023-02-04T16:01:40.155Z,6.50
2023-02-04T16:04:45.448Z,5.00
2023-02-04T16:07:48.985Z,4.80
2023-02-04T16:10:54.183Z,4.60
2023-02-04T16:13:58.751Z,6.30
2023-02-04T16:17:01.951Z,7.10
2023-02-04T16:20:06.422Z,8.20
2023-02-04T16:23:09.637Z,8.40
2023-02-04T16:26:13.418Z,9.70
2023-02-04T16:29:17.436Z,6.00
2023-02-04T16:32:21.054Z,5.80
2023-02-04T16:35:24.319Z,5.90
2023-02-04T16:38:28.739Z,6.10
2023-02-04T16:41:32.034Z,7.10
2023-02-04T16:44:37.395Z,6.30
2023-02-04T16:47:40.732Z,6.40
2023-02-04T16:50:44.204Z,5.60
2023-02-04T16:53:47.535Z,5.60
2023-02-04T16:56:50.980Z,4.70
2023-02-04T16:59:54.179Z,5.50
2023-02-04T17:02:58.135Z,5.90
2023-02-04T17:06:01.656Z,5.80
2023-02-04T17:09:04.935Z,6.00
2023-02-04T17:12:08.264Z,5.60
2023-02-04T17:15:11.515Z,4.80
2023-02-04T17:18:14.704Z,5.10
2023-02-04T17:21:18.515Z,5.50
2023-02-04T17:24:22.252Z,5.30
2023-02-04T17:27:26.211Z,5.00
2023-02-04T17:30:30.423Z,5.40
2023-02-04T17:33:37.706Z,5.90
2023-02-04T17:36:40.967Z,5.60
2023-02-04T17:39:44.829Z,5.20
2023-02-04T17:42:49.074Z,5.30
2023-02-04T17:45:52.633Z,6.10
2023-02-04T17:48:59.307Z,5.30
2023-02-04T17:52:03.505Z,7.10
2023-02-04T17:55:31.257Z,6.70
2023-02-04T17:58:36.355Z,5.40
2023-02-04T18:01:42.891Z,5.40
2023-02-04T18:04:46.530Z,5.10
2023-02-04T18:07:58.955Z,4.30
2023-02-04T18:11:02.171Z,4.40
2023-02-04T18:14:24.548Z,5.90
2023-02-04T18:17:28.613Z,20.90
2023-02-04T18:20:32.644Z,21.10
2023-02-04T18:23:36.200Z,18.40
2023-02-04T18:26:49.907Z,15.50
2023-02-04T18:29:55.750Z,27.10
2023-02-04T18:32:59.815Z,15.30
2023-02-04T18:36:03.122Z,8.50
2023-02-04T18:39:19.088Z,6.00
2023-02-04T18:42:25.830Z,13.30
2023-02-04T18:45:31.892Z,6.20
2023-02-04T18:49:00.863Z,7.30
2023-02-04T18:52:18.974Z,5.60
2023-02-04T18:55:37.711Z,5.70
2023-02-04T18:58:42.843Z,6.40
2023-02-04T19:01:48.104Z,5.70
2023-02-04T19:04:53.381Z,7.00
2023-02-04T19:08:04.463Z,7.60
2023-02-04T19:11:25.280Z,7.70
2023-02-04T19:14:40.211Z,7.90
2023-02-04T19:17:43.409Z,14.40
2023-02-04T19:20:50.765Z,9.70
2023-02-04T19:24:23.759Z,5.10
2023-02-04T19:27:31.951Z,4.10
2023-02-04T19:30:54.043Z,3.50
2023-02-04T19:33:57.476Z,4.10
2023-02-04T19:37:00.769Z,4.20
2023-02-04T19:40:24.289Z,2.40
2023-02-04T19:43:40.017Z,2.70
2023-02-04T19:46:44.050Z,3.10
2023-02-04T19:49:47.322Z,3.90
2023-02-04T19:53:12.229Z,2.90
2023-02-04T19:56:33.572Z,4.30
2023-02-04T19:59:36.838Z,4.40
2023-02-04T20:02:40.463Z,4.20
2023-02-04T20:05:44.293Z,5.90
2023-02-04T20:08:54.567Z,4.60
2023-02-04T20:12:06.108Z,5.30
2023-02-04T20:15:20.200Z,5.90
2023-02-04T20:18:28.296Z,5.90
2023-02-04T20:21:32.478Z,4.90
2023-02-04T20:24:37.978Z,5.50
2023-02-04T20:27:41.822Z,5.40
2023-02-04T20:30:46.342Z,6.10
2023-02-04T20:33:59.453Z,7.30
2023-02-04T20:37:02.871Z,7.00
2023-02-04T20:40:18.832Z,5.40
2023-02-04T20:43:24.188Z,5.30
2023-02-04T20:46:27.663Z,7.10
2023-02-04T20:49:40.868Z,7.50
2023-02-04T20:52:45.619Z,6.20
2023-02-04T20:55:51.886Z,4.90
2023-02-04T20:59:33.719Z,5.60
2023-02-04T21:02:38.917Z,4.30
2023-02-04T21:05:42.291Z,4.40
2023-02-04T21:08:47.970Z,6.30
2023-02-04T21:11:54.300Z,5.30
2023-02-04T21:14:57.544Z,5.40
2023-02-04T21:18:00.915Z,5.90
2023-02-04T21:21:07.393Z,5.30
2023-02-04T21:24:10.811Z,4.00
2023-02-04T21:27:15.248Z,6.40
2023-02-04T21:30:18.895Z,6.30
2023-02-04T21:33:22.222Z,6.30
2023-02-04T21:36:27.904Z,8.80
2023-02-04T21:39:31.213Z,5.60
2023-02-04T21:42:34.507Z,5.00
2023-02-04T21:45:39.729Z,7.80
2023-02-04T21:48:44.239Z,6.10
2023-02-04T21:51:47.595Z,6.40
2023-02-04T21:54:51.127Z,4.90
2023-02-04T21:57:54.437Z,6.70
2023-02-04T22:00:57.739Z,7.20
2023-02-04T22:04:01.380Z,6.30
2023-02-04T22:07:04.903Z,6.70
2023-02-04T22:10:12.200Z,7.50
2023-02-04T22:13:21.299Z,7.60
2023-02-04T22:16:24.622Z,5.90
2023-02-04T22:19:27.969Z,5.50
2023-02-04T22:22:31.340Z,6.70
2023-02-04T22:25:34.938Z,8.90
2023-02-04T22:28:41.683Z,7.90
2023-02-04T22:31:45.024Z,7.60
2023-02-04T22:35:15.162Z,7.00
2023-02-04T22:38:20.233Z,6.90
2023-02-04T22:41:23.673Z,6.00
2023-02-04T22:44:27.300Z,5.10
2023-02-04T22:47:30.902Z,5.70
2023-02-04T22:50:34.242Z,7.00
2023-02-04T22:53:37.503Z,6.70
2023-02-04T22:56:40.828Z,7.40
2023-02-04T22:59:44.180Z,5.80
2023-02-04T23:02:47.594Z,6.30
2023-02-04T23:05:51.078Z,8.30
2023-02-04T23:08:54.482Z,9.50
2023-02-04T23:11:58.584Z,8.30
2023-02-04T23:15:02.764Z,7.00
2023-02-04T23:18:06.120Z,9.80
2023-02-04T23:21:10.324Z,5.80
2023-02-04T23:24:13.650Z,9.40
2023-02-04T23:27:17.134Z,7.90
2023-02-04T23:30:20.628Z,7.50
2023-02-04T23:33:24.251Z,10.00
2023-02-04T23:36:27.514Z,12.00
2023-02-04T23:39:31.107Z,6.20
2023-02-04T23:42:34.463Z,7.20
2023-02-04T23:45:38.030Z,8.20
2023-02-04T23:48:41.325Z,9.10
2023-02-04T23:51:44.739Z,7.20
2023-02-04T23:54:48.108Z,7.10
2023-02-04T23:57:51.928Z,5.90
